Date,TemperatureHighF,TemperatureAvgF,TemperatureLowF,DewpointHighF,DewpointAvgF,DewpointLowF,HumidityHigh,HumidityAvg,HumidityLow,PressureMaxIn,PressureMinIn,WindSpeedMaxMPH,WindSpeedAvgMPH,GustSpeedMaxMPH,PrecipitationSumIn
2014-1-1,29,26,22,22,19,12,84,74,64,30.38,30.16,5,2,10,0.00
2014-1-2,28,26,18,24,22,14,92,86,79,30.16,29.70,5,2,11,0.00
2014-1-3,18,11,4,15,2,-4,89,69,43,30.46,29.74,10,4,16,0.00
2014-1-4,26,14,2,12,6,-1,88,70,46,30.46,30.26,8,2,11,0.01
2014-1-5,48,25,9,47,22,6,97,86,62,30.26,29.60,8,2,19,0.05
2014-1-6,52,33,4,49,24,-10,96,70,43,29.93,29.39,13,8,27,0.26
2014-1-7,7,2,-3,-4,-10,-16,63,55,49,30.40,29.93,10,7,19,0.00
2014-1-8,21,14,6,9,2,-4,74,61,48,30.56,30.40,8,3,13,0.00
2014-1-9,30,23,15,18,13,8,85,66,51,30.65,30.48,5,1,7,0.00
2014-1-10,36,31,26,32,27,17,95,86,60,30.51,30.10,6,1,11,0.09
2014-1-11,49,42,33,48,40,32,99,96,72,30.10,29.33,8,2,14,0.45
2014-1-12,45,38,32,36,30,27,82,72,68,30.05,29.47,9,4,15,0.00
2014-1-13,50,39,27,38,32,25,94,77,56,30.07,29.78,9,2,13,0.00
2014-1-14,46,42,33,43,40,32,98,93,75,29.85,29.64,4,1,6,0.21
2014-1-15,42,34,28,39,32,26,98,91,71,29.94,29.84,5,1,9,0.00
2014-1-16,35,31,26,26,22,19,86,67,59,29.97,29.83,5,2,8,0.00
2014-1-17,39,32,25,29,25,21,88,77,58,29.92,29.80,5,1,9,0.00
2014-1-18,31,26,19,29,19,11,95,77,56,29.92,29.77,8,4,16,0.00
2014-1-19,34,24,17,24,18,11,87,75,63,29.89,29.64,10,4,16,0.01
2014-1-20,39,33,27,31,24,18,76,70,61,29.90,29.58,8,3,13,0.02
2014-1-21,27,16,4,18,8,-6,85,70,55,30.00,29.87,6,3,11,0.00
2014-1-22,14,7,1,0,-4,-7,73,62,49,30.06,29.93,9,4,16,0.00
2014-1-23,18,12,5,12,5,-2,85,75,58,30.33,30.05,7,2,15,0.00
2014-1-24,18,13,7,7,2,-1,77,61,45,30.43,29.93,11,6,16,0.00
2014-1-25,25,21,17,21,9,0,88,59,45,29.93,29.37,13,7,19,0.00
2014-1-26,27,18,12,16,7,-3,81,62,48,29.87,29.57,9,5,15,0.00
2014-1-27,34,25,13,26,10,-1,86,55,35,30.13,29.53,13,4,21,0.00
2014-1-28,13,10,4,3,-4,-6,66,55,44,30.41,30.13,8,4,13,0.00
2014-1-29,20,13,4,1,-3,-7,62,50,38,30.33,30.13,10,4,20,0.00
2014-1-30,29,18,7,7,4,1,83,55,34,30.44,30.10,7,3,13,0.00
2014-1-31,33,28,22,21,14,6,66,55,48,30.21,30.05,6,1,9,0.00
2014-2-1,46,37,28,32,23,18,77,58,34,30.26,29.94,9,3,16,0.00
2014-2-2,41,36,31,36,32,28,93,87,70,30.10,29.90,3,0,5,0.03
2014-2-3,36,30,20,34,26,16,95,87,77,30.34,30.08,6,2,8,0.00
2014-2-4,29,22,12,21,16,9,92,78,64,30.48,30.20,5,1,8,0.09
2014-2-5,34,29,23,33,27,17,97,91,76,30.24,29.62,12,3,19,0.00
2014-2-6,28,23,16,18,15,12,87,73,61,30.32,30.11,6,2,10,0.01
2014-2-7,29,23,16,14,11,5,83,62,45,30.32,30.22,7,3,12,0.00
2014-2-8,25,18,9,12,6,1,79,59,38,30.34,30.17,5,1,8,0.00
2014-2-9,23,18,11,20,14,9,92,85,69,30.20,29.98,4,1,6,0.00
2014-2-10,26,20,14,19,11,8,91,67,51,30.30,30.05,7,3,14,0.00
2014-2-11,23,16,6,9,6,2,87,68,48,30.43,30.30,7,2,11,0.00
2014-2-12,23,18,2,13,7,-1,89,60,46,30.53,30.25,6,2,10,0.00
2014-2-13,35,27,18,32,24,13,95,89,78,30.25,29.27,8,2,11,0.00
2014-2-14,37,32,27,28,24,20,89,73,63,29.74,29.28,9,5,15,0.00
2014-2-15,34,29,21,31,24,12,94,82,59,29.90,29.68,10,3,16,0.00
2014-2-16,25,19,13,18,12,7,87,73,58,30.21,29.90,7,4,11,0.00
2014-2-17,27,20,10,12,8,3,75,59,43,30.45,30.17,7,3,10,0.00
2014-2-18,37,30,23,30,23,8,87,75,44,30.19,29.93,9,4,15,0.01
2014-2-19,44,34,21,37,28,18,92,81,69,30.08,29.66,10,2,13,0.29
2014-2-20,49,39,26,32,27,21,90,65,36,30.23,29.91,7,2,10,0.01
2014-2-21,49,42,38,48,36,28,96,80,55,29.91,29.61,11,3,15,0.32
2014-2-22,53,44,34,28,22,19,70,43,26,29.97,29.89,12,4,20,0.00
2014-2-23,48,38,27,33,28,24,88,68,50,30.01,29.85,8,2,12,0.00
2014-2-24,39,30,25,29,15,11,67,54,45,30.09,29.84,9,6,20,0.00
2014-2-25,29,25,21,19,13,10,79,61,48,30.07,29.95,7,4,12,0.00
2014-2-26,24,22,16,19,8,-1,89,58,35,29.96,29.81,10,4,20,0.00
2014-2-27,26,18,8,15,2,-11,71,50,35,30.15,29.63,13,7,22,0.00
2014-2-28,20,12,4,1,-5,-9,61,46,27,30.41,30.15,6,2,11,0.00
2014-3-1,34,23,10,20,10,-1,75,57,42,30.37,30.12,9,2,13,0.00
2014-3-2,34,30,25,29,22,14,92,71,59,30.13,30.01,6,2,9,0.02
2014-3-3,25,17,12,14,2,-3,65,53,40,30.36,30.04,9,4,14,0.00
2014-3-4,28,18,7,10,4,1,79,56,37,30.42,30.21,5,2,8,0.00
2014-3-5,34,27,18,15,10,6,67,49,32,30.49,30.17,7,3,12,0.00
2014-3-6,31,22,13,10,7,1,74,54,28,30.61,30.40,7,3,13,0.00
2014-3-7,33,24,22,23,15,9,74,67,52,30.41,30.21,6,2,10,0.00
2014-3-10,55,49,38,37,33,25,65,54,49,29.79,29.56,8,4,16,0.00
2014-3-11,63,51,39,42,38,33,84,62,43,29.66,29.55,7,2,12,0.00
2014-3-12,50,41,20,45,34,10,94,76,62,29.61,28.97,15,4,27,0.22
2014-3-13,28,21,15,10,3,-2,69,47,29,30.12,29.47,14,9,24,0.00
2014-3-14,48,34,21,25,15,2,64,46,33,30.14,29.75,10,4,20,0.00
2014-3-15,53,46,36,37,29,22,72,50,38,30.04,29.67,11,7,19,0.00
2014-3-16,36,29,26,22,12,7,60,49,38,30.21,30.03,8,4,13,0.00
2014-3-17,35,27,20,13,5,-1,48,38,29,30.12,29.99,7,2,11,0.00
2014-3-18,46,35,28,19,10,4,46,36,20,30.22,30.07,8,3,13,0.00
2014-3-19,40,37,34,37,28,12,93,72,37,30.20,29.79,7,3,11,0.04
2014-3-20,47,42,37,39,31,24,95,68,44,29.93,29.71,11,6,19,0.00
2014-3-21,52,41,34,25,22,17,63,48,26,30.01,29.92,9,4,16,0.00
2014-3-22,59,45,33,37,27,21,73,52,29,30.03,29.73,12,4,19,0.00
2014-3-23,38,34,23,25,18,8,70,53,29,30.19,29.99,8,4,15,0.00
2014-3-24,32,25,18,9,6,4,68,46,31,30.27,30.10,9,4,12,0.00
2014-3-25,32,28,20,28,20,8,92,73,46,30.13,29.87,8,2,14,0.00
2014-3-26,32,27,22,25,11,2,93,54,30,30.27,29.85,14,6,25,0.00
2014-3-27,44,31,17,22,13,5,75,49,30,30.39,30.13,9,4,16,0.00
2014-3-28,59,47,37,51,39,22,92,76,48,30.13,29.86,14,4,21,0.27
2014-3-29,51,44,39,46,41,36,96,88,77,30.14,29.60,7,3,13,0.90
2014-3-30,46,38,33,45,36,31,97,92,84,29.85,29.58,9,4,12,0.41
2014-3-31,57,43,34,36,31,29,96,65,38,30.13,29.85,8,5,15,1.23
2014-4-1,58,44,30,36,32,27,91,63,41,30.14,29.90,7,2,10,0.00
2014-4-2,64,49,38,41,36,32,86,64,34,30.08,29.94,5,1,11,0.00
2014-4-3,60,50,42,42,32,14,89,53,16,30.14,29.93,7,2,11,0.11
2014-4-4,46,44,41,44,41,39,95,89,81,29.98,29.70,12,6,16,0.27
2014-4-5,45,42,36,41,33,25,96,71,52,30.12,29.70,10,5,21,0.00
2014-4-6,56,43,30,29,25,20,79,52,25,30.22,30.09,6,2,11,0.00
2014-4-7,42,39,35,40,32,27,95,75,58,30.15,29.86,7,1,10,0.28
2014-4-8,54,48,41,39,37,35,81,64,54,29.65,29.50,11,4,14,0.05
2014-4-9,60,47,34,38,31,25,93,58,27,30.01,29.64,10,3,18,0.00
2014-4-10,67,51,32,36,32,28,87,53,29,30.14,29.89,16,6,26,0.00
2014-4-11,64,57,49,53,45,36,95,68,40,30.01,29.85,11,4,16,0.13
2014-4-12,69,56,44,48,41,34,94,64,29,30.22,30.01,7,3,15,0.00
2014-4-13,82,68,58,56,50,33,73,54,32,30.07,29.83,12,6,18,0.00
2014-4-14,76,70,63,57,55,51,74,59,46,29.88,29.68,19,8,32,0.00
2014-4-15,68,53,32,62,48,23,96,85,60,30.01,29.44,14,6,18,1.39
2014-4-16,44,34,25,23,17,10,69,50,33,30.55,30.01,12,4,19,0.00
2014-4-17,54,42,31,31,26,18,70,53,37,30.64,30.49,10,4,15,0.00
2014-4-18,55,44,34,36,32,28,82,63,45,30.57,30.22,7,3,12,0.00
2014-4-19,62,50,38,39,31,22,89,54,25,30.34,30.21,6,2,11,0.00
2014-4-20,65,52,37,36,32,30,81,49,31,30.41,30.25,8,3,11,0.00
2014-4-21,72,56,39,34,29,24,79,41,17,30.26,29.79,8,3,15,0.00
2014-4-22,65,56,49,55,43,28,88,62,30,29.79,29.49,10,2,18,0.07
2014-4-23,53,47,41,38,34,28,72,62,53,29.93,29.59,11,6,16,0.00
2014-4-24,61,48,36,28,20,17,57,35,19,30.06,29.93,11,4,16,0.00
2014-4-25,64,51,39,47,30,19,94,48,22,30.01,29.70,11,3,18,0.22
2014-4-26,69,54,45,46,40,28,96,63,28,29.91,29.64,11,4,19,0.05
2014-4-27,59,50,42,36,34,32,72,56,38,30.13,29.91,9,4,15,0.00
2014-4-28,62,51,36,43,35,32,89,57,35,30.13,29.94,9,2,14,0.00
2014-4-29,55,48,43,45,42,38,92,80,62,30.25,30.00,13,7,25,0.27
2014-4-30,56,49,42,54,46,40,92,89,84,30.26,29.78,14,5,29,0.51
2014-5-1,72,61,53,57,50,41,97,72,45,29.80,29.66,10,4,18,0.18
2014-5-2,61,55,47,43,39,36,78,58,40,29.84,29.72,8,3,14,0.00
2014-5-3,65,55,46,49,42,39,89,64,41,29.84,29.67,10,3,18,0.05
2014-5-4,59,53,49,48,40,34,89,62,40,29.89,29.70,10,5,19,0.01
2014-5-5,64,54,43,37,32,26,71,47,24,29.97,29.84,9,3,15,0.00
2014-5-6,68,56,43,38,33,25,72,44,28,30.07,29.87,7,2,14,0.00
2014-5-7,65,55,42,47,37,32,79,53,32,30.20,30.07,7,2,12,0.00
2014-5-8,78,63,51,59,53,45,96,74,49,30.12,29.94,10,2,14,0.13
2014-5-9,78,67,58,61,58,54,88,74,52,30.07,29.85,7,3,11,0.00
2014-5-10,77,69,64,63,60,57,92,76,51,29.88,29.79,14,4,21,0.00
2014-5-11,79,68,55,59,49,41,93,55,27,30.05,29.86,8,3,13,0.02
2014-5-12,80,68,54,59,53,47,86,61,38,30.07,29.98,7,1,12,0.00
2014-5-13,86,69,59,65,58,46,92,69,44,30.13,29.98,8,2,18,0.00
2014-5-14,69,61,52,62,54,43,87,77,57,30.20,30.08,8,3,10,0.04
2014-5-15,66,65,64,62,62,61,90,89,87,30.11,30.03,6,4,10,0.00
2014-5-21,62,61,59,60,59,58,97,94,91,29.89,29.83,3,0,5,0.12
2014-5-22,76,65,59,66,60,50,99,86,62,29.86,29.69,5,1,14,0.89
2014-5-23,72,59,50,55,51,47,93,75,42,29.98,29.82,7,2,12,0.09
2014-5-24,73,62,54,57,53,49,87,72,49,30.07,29.96,5,1,11,0.00
2014-5-25,80,66,50,56,50,43,97,62,27,30.11,30.00,6,2,11,0.00
2014-5-26,84,70,53,57,54,50,91,59,35,30.06,29.86,7,2,12,0.00
2014-5-27,84,70,62,70,61,55,96,76,55,29.90,29.77,10,2,15,0.60
2014-5-28,81,70,59,70,62,54,98,79,44,30.06,29.76,8,2,13,0.04
2014-5-29,59,56,54,54,51,49,89,84,77,30.15,30.05,7,3,11,0.00
2014-5-30,77,65,54,56,52,47,96,67,36,30.11,29.98,6,2,11,0.00
2014-5-31,76,65,52,53,46,38,91,55,28,30.22,30.08,6,2,14,0.00
2014-6-1,77,65,51,56,51,46,89,63,40,30.31,30.15,7,2,12,0.00
2014-6-2,83,71,56,64,57,49,82,62,47,30.20,29.95,8,2,20,0.00
2014-6-3,83,72,64,68,64,62,93,77,56,29.96,29.73,10,2,15,0.20
2014-6-4,78,67,59,62,58,52,97,74,42,29.85,29.70,4,1,9,0.09
2014-6-5,74,65,58,60,55,51,96,73,46,29.81,29.65,5,2,10,0.38
2014-6-6,75,65,55,54,52,48,80,63,45,29.94,29.79,5,2,10,0.00
2014-6-7,82,68,52,58,54,50,96,66,33,30.02,29.87,4,1,8,0.00
2014-6-8,82,70,57,64,59,53,92,70,41,29.92,29.76,7,2,12,0.04
2014-6-9,73,68,64,68,65,62,95,88,80,29.88,29.78,4,1,8,0.09
2014-6-10,80,73,67,69,67,64,94,82,64,29.90,29.83,5,2,10,0.02
2014-6-11,72,68,64,68,64,61,92,88,83,29.99,29.87,9,4,16,0.04
2014-6-12,71,67,63,67,64,61,95,90,83,29.99,29.80,7,3,15,0.24
2014-6-13,79,71,65,70,67,62,96,88,68,29.80,29.65,6,2,12,0.19
2014-6-14,66,62,56,64,54,50,95,74,60,30.05,29.79,7,3,12,0.00
2014-6-15,80,65,51,60,55,49,95,71,45,30.15,30.02,5,1,9,0.00
2014-6-16,87,72,56,70,61,55,94,72,41,30.11,29.94,7,2,11,0.25
2014-6-17,87,77,66,74,69,66,98,78,53,30.04,29.82,8,2,10,0.01
2014-6-18,88,79,67,72,66,63,91,68,45,29.93,29.80,8,2,11,0.06
2014-6-19,76,70,61,69,64,50,94,82,53,30.02,29.85,6,1,13,0.19
2014-6-20,79,66,51,54,50,45,88,59,37,30.04,29.88,4,1,9,0.00
2014-6-21,79,69,56,60,52,41,77,56,40,29.93,29.80,4,1,10,0.00
2014-6-22,82,70,58,59,55,48,90,62,31,29.90,29.82,5,1,7,0.00
2014-6-23,82,72,60,64,60,56,91,68,49,30.03,29.90,7,3,11,0.00
2014-6-24,84,74,66,68,63,57,84,68,58,30.05,29.89,7,3,11,0.02
2014-6-25,87,76,70,71,68,65,97,78,53,29.91,29.72,9,2,12,0.48
2014-6-26,84,75,67,69,66,62,97,75,49,29.94,29.77,6,2,11,0.00
2014-6-27,84,74,64,66,63,58,94,69,43,30.11,29.94,6,1,11,0.00
2014-6-28,84,76,66,66,61,54,91,64,41,30.21,30.11,6,2,10,0.00
2014-6-29,81,74,64,65,61,57,93,66,46,30.16,30.02,9,3,15,0.00
2014-6-30,85,76,68,70,66,60,91,71,56,30.03,29.84,5,2,9,0.11
2014-7-1,90,81,71,73,70,68,90,72,52,29.87,29.71,7,2,14,0.00
2014-7-2,90,78,71,76,72,67,95,82,56,29.84,29.74,11,2,15,0.37
2014-7-3,89,74,68,75,69,65,99,88,53,29.93,29.78,10,1,26,1.01
2014-7-4,73,67,62,68,57,48,97,72,44,30.10,29.93,8,3,14,0.00
2014-7-5,81,69,56,57,52,48,85,58,34,30.19,30.06,5,2,10,0.00
2014-7-6,83,71,57,62,56,50,93,63,34,30.07,29.85,8,2,14,0.00
2014-7-7,90,78,69,67,62,57,92,60,38,29.86,29.64,12,4,21,0.06
2014-7-8,88,76,67,71,68,65,96,79,53,29.75,29.54,10,3,20,0.69
2014-7-9,86,75,66,69,65,59,96,75,41,29.92,29.66,8,2,18,0.01
2014-7-10,80,72,63,64,62,59,95,73,52,30.08,29.91,5,2,10,0.00
2014-7-11,85,74,63,64,60,54,88,64,36,30.16,30.08,4,1,9,0.00
2014-7-12,85,75,64,70,66,61,92,75,56,30.15,30.01,8,2,16,0.00
2014-7-13,85,77,70,72,69,66,96,77,60,30.01,29.71,8,3,16,0.39
2014-7-14,78,73,69,72,70,68,97,90,76,29.85,29.73,7,0,10,0.11
2014-7-15,81,73,69,72,69,68,97,88,67,29.77,29.66,5,1,11,0.01
2014-7-16,79,71,63,68,58,52,93,67,41,29.88,29.70,6,2,10,0.00
2014-7-17,78,68,60,58,54,48,86,62,37,30.09,29.88,5,2,11,0.00
2014-7-18,77,67,55,60,55,51,94,68,42,30.22,30.09,3,1,8,0.00
2014-7-19,80,69,61,62,59,56,88,71,48,30.18,30.08,6,2,10,0.00
2014-7-20,80,72,64,63,60,58,85,67,49,30.11,30.01,6,2,10,0.00
2014-7-21,82,73,65,68,65,61,90,76,58,30.14,30.06,5,2,9,0.00
2014-7-22,86,76,66,72,68,64,95,79,59,30.12,29.95,6,1,10,0.00
2014-7-23,90,79,70,75,70,64,94,76,55,29.96,29.70,9,2,14,0.03
2014-7-24,77,70,62,64,57,51,83,63,44,29.93,29.81,6,2,9,0.00
2014-7-25,80,67,52,56,52,49,91,62,36,30.04,29.92,5,1,9,0.00
2014-7-26,82,70,60,63,59,54,93,70,47,29.96,29.80,5,1,12,0.02
2014-7-27,88,77,67,69,65,61,94,68,45,29.80,29.44,6,2,10,0.21
2014-7-28,77,68,63,66,62,56,97,84,57,29.76,29.35,8,3,12,0.16
2014-7-29,72,65,58,57,54,48,89,69,46,29.95,29.75,5,2,9,0.00
2014-7-30,76,65,54,59,55,52,96,74,48,30.02,29.94,7,2,12,0.17
2014-7-31,79,68,60,65,61,58,96,80,55,30.08,29.98,6,2,12,0.01
2014-8-1,82,70,62,70,64,61,96,82,58,30.12,30.06,6,1,14,0.00
2014-8-2,78,72,66,66,64,62,93,77,59,30.12,30.00,5,2,9,0.00
2014-8-3,76,71,67,67,65,64,91,83,70,30.04,29.95,5,2,7,0.02
2014-8-4,82,72,64,66,63,62,94,75,52,30.05,29.98,4,1,7,0.00
2014-8-5,87,72,62,68,62,57,98,75,38,30.02,29.87,11,2,16,0.06
2014-8-6,80,70,63,64,62,59,95,77,50,29.92,29.83,5,2,9,0.01
2014-8-24,78,72,65,62,60,56,86,68,47,30.07,30.01,3,0,6,0.00
2014-8-25,82,69,58,65,60,53,98,75,37,30.16,30.06,4,1,7,0.00
2014-8-26,83,70,58,65,62,58,98,76,44,30.14,30.01,5,1,10,0.00
2014-8-27,87,73,61,73,66,60,96,81,57,30.01,29.82,8,1,14,0.74
2014-8-28,75,67,60,68,56,50,91,70,47,30.07,29.88,7,2,9,0.00
2014-8-29,75,64,52,58,54,49,94,72,51,30.17,30.07,5,1,9,0.00
2014-8-30,74,68,60,66,62,56,92,80,72,30.18,30.04,5,2,11,0.00
2014-8-31,79,75,72,73,70,66,91,85,77,30.05,29.92,5,1,9,0.03
2014-9-1,84,76,68,72,70,67,98,84,62,29.96,29.85,5,1,9,0.00
2014-9-2,87,77,70,73,70,66,96,81,51,29.88,29.71,8,2,12,0.46
2014-9-3,82,72,64,67,63,58,96,76,47,30.07,29.83,4,1,8,0.01
2014-9-4,85,72,60,70,64,59,98,78,58,30.13,30.01,5,1,12,0.00
2014-9-5,86,77,69,72,70,66,92,79,60,30.09,29.93,5,2,9,0.00
2014-9-6,86,74,63,74,69,60,96,85,58,29.95,29.77,7,2,12,0.42
2014-9-7,75,66,57,60,55,51,91,70,44,30.16,29.94,4,1,9,0.00
2014-9-8,75,65,55,59,56,52,90,73,51,30.25,30.15,9,3,16,0.00
2014-9-9,72,66,59,62,58,54,88,77,69,30.21,30.06,6,2,11,0.00
2014-9-10,74,69,64,63,61,60,89,77,65,30.08,29.88,6,2,10,0.00
2014-9-11,80,72,63,70,65,55,91,78,59,29.97,29.76,9,4,12,0.08
2014-9-12,67,60,53,54,51,48,83,73,61,30.17,29.97,5,2,10,0.00
2014-9-13,61,56,51,59,53,46,97,90,81,30.19,30.05,6,1,9,0.28
2014-9-14,66,55,46,50,48,45,96,77,52,30.29,30.15,3,1,8,0.01
2014-9-15,68,56,46,53,48,44,98,78,44,30.22,30.00,4,1,8,0.01
2014-9-16,67,61,55,56,52,50,91,75,57,30.00,29.94,4,1,7,0.01
2014-9-17,70,58,47,53,49,44,98,76,42,30.05,29.92,4,1,9,0.00
2014-9-18,72,59,48,54,50,46,96,74,44,30.11,29.92,4,1,8,0.00
2014-9-19,69,58,48,54,49,45,88,73,55,30.27,30.11,8,2,12,0.00
2014-9-20,76,67,59,61,58,53,86,75,58,30.23,29.96,9,4,15,0.00
2014-9-21,82,70,58,66,61,56,96,76,51,29.98,29.53,7,2,15,0.00
2014-9-22,65,59,50,58,48,42,80,67,52,30.17,29.65,8,4,14,0.01
2014-9-23,69,56,43,53,46,41,94,73,45,30.35,30.16,4,1,7,0.00
2014-9-24,70,60,49,56,52,47,96,76,54,30.49,30.35,8,2,15,0.00
2014-9-25,68,61,56,58,55,51,93,80,69,30.40,30.20,6,1,8,0.10
2014-9-26,76,69,58,58,56,54,88,65,47,30.22,30.13,4,1,8,0.00
2014-9-27,79,63,50,62,56,49,99,81,50,30.24,30.12,4,1,7,0.01
2014-9-28,81,65,53,64,57,51,98,77,36,30.16,29.98,4,1,9,0.00
2014-9-29,74,65,58,63,59,56,96,83,62,29.98,29.84,3,0,5,0.00
2014-9-30,72,65,57,64,60,56,98,86,72,29.91,29.80,6,1,10,0.01
2014-10-1,73,65,60,63,59,57,96,83,63,30.03,29.91,4,0,8,0.03
2014-10-2,70,62,55,60,57,54,98,85,67,30.10,30.02,4,1,7,0.01
2014-10-3,70,62,54,60,56,53,98,84,67,30.04,29.65,8,3,15,0.06
2014-10-4,62,59,53,59,55,40,97,87,51,29.65,29.51,8,2,13,0.17
2014-10-5,55,48,38,43,39,35,90,71,51,29.94,29.72,8,1,5,0.00
2014-10-6,69,55,42,51,44,39,90,67,46,29.96,29.83,10,3,18,0.00
2014-10-7,70,62,55,58,52,46,92,72,44,29.94,29.70,9,4,15,0.10
2014-10-8,68,61,55,58,49,41,93,68,42,29.91,29.69,11,4,20,0.01
2014-10-9,64,56,46,44,41,39,81,59,42,30.03,29.91,8,2,13,0.00
2014-10-10,58,51,41,46,43,39,94,74,58,30.11,30.02,2,0,6,0.00
2014-10-11,59,52,48,50,47,42,96,83,68,30.16,29.99,4,0,7,0.22
2014-10-12,62,50,38,45,40,36,98,71,37,30.28,30.16,5,1,9,0.00
2014-10-13,62,58,54,60,52,42,91,83,64,30.24,30.14,5,2,8,0.00
2014-10-14,74,69,62,66,64,59,93,83,72,30.14,29.92,9,4,15,0.00
2014-10-15,72,67,62,68,64,61,98,92,80,29.92,29.67,8,4,19,1.61
2014-10-16,70,62,56,64,58,54,99,89,60,29.68,29.59,7,2,11,0.16
2014-10-17,68,60,54,55,52,49,97,77,52,29.70,29.56,8,2,19,0.00
2014-10-18,63,58,50,54,48,41,89,71,55,29.77,29.50,8,3,12,0.00
2014-10-19,52,46,40,42,34,28,81,63,41,30.04,29.77,9,4,19,0.00
2014-10-20,59,48,36,46,38,33,93,71,45,30.05,29.85,9,2,18,0.00
2014-10-21,59,54,49,52,49,45,97,83,70,29.90,29.78,3,0,6,0.03
2014-10-22,54,52,50,49,47,45,91,83,79,29.97,29.87,9,3,14,0.00
2014-10-23,55,52,48,47,45,43,89,78,66,29.89,29.80,8,4,13,0.02
2014-10-24,68,58,50,48,42,29,88,59,28,29.89,29.78,8,3,14,0.00
2014-10-25,68,56,42,52,43,31,83,62,45,29.88,29.56,8,2,19,0.00
2014-10-26,61,55,49,46,39,34,64,54,44,29.86,29.55,10,4,20,0.00
2014-10-27,63,51,38,43,39,35,91,65,39,30.03,29.85,4,1,9,0.00
2014-10-28,79,60,44,55,47,39,85,65,43,29.96,29.80,8,2,14,0.00
2014-10-29,68,56,45,60,52,42,95,87,62,29.91,29.79,7,2,18,0.22
2014-10-30,52,46,40,43,38,35,96,76,54,30.01,29.91,5,1,9,0.00
2014-10-31,52,44,35,39,36,33,92,73,50,30.00,29.83,4,1,9,0.00
2014-11-1,50,45,42,41,37,30,88,73,62,29.92,29.79,8,3,14,0.02
2014-11-2,45,41,37,33,26,20,76,56,39,30.16,29.91,12,6,24,0.00
2014-11-3,57,48,37,35,26,18,76,46,21,30.20,30.10,8,2,12,0.00
2014-11-4,67,58,48,34,27,22,51,32,20,30.12,29.92,8,2,13,0.00
2014-11-5,61,56,49,49,37,32,71,49,39,30.11,29.92,6,2,10,0.00
2014-11-6,50,47,45,48,44,36,96,88,60,30.05,29.60,4,1,8,0.16
2014-11-7,46,42,34,42,34,25,92,73,53,29.97,29.63,12,4,25,0.04
2014-11-8,48,40,30,32,28,25,89,65,44,30.00,29.83,9,3,11,0.00
2014-11-9,52,44,35,37,33,30,88,66,46,29.98,29.83,7,1,11,0.00
2014-11-10,62,47,33,40,35,30,91,66,36,30.12,29.98,8,1,10,0.00
2014-11-11,63,54,38,57,46,36,92,76,55,30.05,29.82,9,2,14,0.00
2014-11-12,56,50,38,54,40,28,98,71,43,30.09,29.77,9,3,15,0.00
2014-11-13,41,36,30,34,29,26,93,76,60,30.10,29.98,6,1,9,0.02
2014-11-14,38,34,29,30,23,19,78,63,47,30.20,30.00,7,4,12,0.00
2014-11-15,39,33,28,27,22,19,81,64,46,30.33,30.20,7,2,12,0.00
2014-11-16,41,36,28,32,25,22,83,63,52,30.28,29.97,9,3,15,0.01
2014-11-17,37,36,36,35,34,32,95,93,84,29.97,29.76,4,1,7,0.15
2014-11-18,24,21,20,7,6,6,55,53,46,30.11,29.94,8,6,14,0.00
2014-11-19,31,24,17,14,9,6,67,54,45,30.28,29.93,9,5,14,0.00
2014-11-20,37,32,26,21,16,10,58,50,45,30.04,29.86,12,6,25,0.00
2014-11-21,34,27,22,14,13,11,67,54,40,30.48,30.04,8,4,19,0.00
2014-11-22,40,30,17,24,17,12,83,59,36,30.48,30.15,6,1,11,0.00
2014-11-23,56,45,34,46,30,24,86,59,36,30.17,29.81,7,1,11,0.01
2014-11-24,69,63,50,58,54,44,93,74,52,29.80,29.42,14,8,27,0.17
2014-11-25,62,48,39,43,32,30,75,54,38,30.14,29.68,11,4,19,0.00
2014-11-26,41,35,31,32,32,29,96,89,67,30.16,29.89,3,0,9,0.08
2014-11-27,35,32,28,31,29,26,95,90,81,30.08,29.92,4,1,7,0.15
2014-11-28,33,29,24,29,21,16,95,73,51,30.24,30.07,8,3,13,0.01
2014-11-29,37,27,19,30,22,17,91,80,70,30.29,30.10,6,2,10,0.00
2014-11-30,42,39,37,36,34,30,90,81,74,30.10,29.99,5,1,10,0.39
2014-12-1,46,39,35,43,34,25,94,83,64,30.48,30.03,7,1,12,0.06
2014-12-2,36,32,29,34,26,20,96,80,63,30.58,30.23,7,1,12,0.18
2014-12-3,42,36,33,38,33,26,97,89,62,30.24,29.97,9,2,16,0.11
2014-12-4,37,34,28,28,26,25,87,73,63,30.47,30.23,6,2,10,0.00
2014-12-5,37,32,26,36,29,22,96,86,72,30.51,30.28,6,1,9,0.36
2014-12-6,40,38,36,39,36,30,98,94,76,30.32,30.07,5,1,11,0.48
2014-12-7,40,34,29,31,20,14,77,56,36,30.59,30.32,6,2,11,0.01
2014-12-8,33,29,24,29,19,4,85,68,41,30.62,30.29,8,2,12,0.00
2014-12-9,40,36,32,38,34,29,95,92,83,30.29,29.83,8,2,10,0.15
2014-12-10,40,38,37,35,32,29,83,78,72,29.83,29.76,11,8,20,0.00
2014-12-11,32,30,28,30,29,26,96,93,90,29.89,29.69,7,2,9,0.08
2014-12-12,36,33,30,32,27,25,93,78,70,30.05,29.88,8,3,11,0.03
2014-12-13,37,35,32,32,29,26,85,81,78,30.05,29.94,6,3,11,0.03
2014-12-14,43,38,34,37,33,30,89,83,78,30.01,29.91,4,1,9,0.02
2014-12-15,40,39,38,36,35,34,88,84,81,30.08,30.00,5,1,10,0.00
2014-12-16,44,42,38,42,39,35,97,90,81,30.03,29.81,6,2,9,0.18
2014-12-17,48,41,35,42,35,25,97,81,65,29.95,29.81,9,4,18,0.00
2014-12-18,36,35,33,29,26,24,78,71,64,30.04,29.94,8,5,13,0.00
2014-12-19,37,34,32,29,26,23,85,72,59,30.19,29.99,7,4,12,0.00
2014-12-20,34,32,30,24,23,21,74,71,66,30.28,30.17,6,1,12,0.00
2014-12-21,34,31,26,25,23,22,84,73,64,30.33,30.24,5,1,7,0.00
2014-12-22,39,31,22,34,27,20,96,85,70,30.31,30.09,5,1,10,0.09
2014-12-23,48,43,34,45,41,33,98,93,89,30.10,29.96,9,1,11,0.14
2014-12-24,59,50,46,56,48,44,99,95,89,29.98,29.38,11,2,19,0.49
2014-12-25,59,45,39,56,37,30,92,74,63,30.12,29.40,12,5,23,0.19
2014-12-26,46,38,31,33,31,28,90,74,56,30.27,30.12,6,1,9,0.00
2014-12-27,54,42,31,39,34,29,95,75,51,30.26,29.96,6,1,8,0.00
2014-12-28,50,45,37,44,37,28,88,73,52,30.08,29.82,7,2,12,0.03
2014-12-29,39,35,31,29,24,20,86,67,51,30.24,30.08,5,1,10,0.00
2014-12-30,33,30,27,24,16,12,76,57,44,30.40,30.23,8,3,13,0.00
2014-12-31,28,25,21,16,11,6,66,55,43,30.35,30.11,7,4,12,0.00
2015-1-1,39,30,21,19,12,7,59,48,35,30.12,29.91,13,5,25,0.00
2015-1-2,38,34,28,22,21,18,76,59,49,30.42,29.99,7,3,15,0.00